sensor_id;sensor_type;location;lat;lon;timestamp;P1;durP1;ratioP1;P2;durP2;ratioP2
6809;SDS011;3443;48.812;9.112;2022-07-06T00:01:59;0.98;;;0.90;;
6809;SDS011;3443;48.812;9.112;2022-07-06T00:04:25;2.72;;;0.75;;
6809;SDS011;3443;48.812;9.112;2022-07-06T00:06:51;1.45;;;0.65;;
6809;SDS011;3443;48.812;9.112;2022-07-06T00:09:17;1.10;;;0.80;;
6809;SDS011;3443;48.812;9.112;2022-07-06T00:11:43;1.65;;;0.90;;
6809;SDS011;3443;48.812;9.112;2022-07-06T00:14:09;1.02;;;0.75;;
6809;SDS011;3443;48.812;9.112;2022-07-06T00:16:35;0.80;;;0.80;;
6809;SDS011;3443;48.812;9.112;2022-07-06T00:19:01;2.97;;;1.00;;
6809;SDS011;3443;48.812;9.112;2022-07-06T00:21:27;0.95;;;0.95;;
6809;SDS011;3443;48.812;9.112;2022-07-06T00:23:53;0.85;;;0.85;;
6809;SDS011;3443;48.812;9.112;2022-07-06T00:26:20;1.48;;;0.90;;
6809;SDS011;3443;48.812;9.112;2022-07-06T00:28:46;1.55;;;0.88;;
6809;SDS011;3443;48.812;9.112;2022-07-06T00:31:12;1.42;;;0.98;;
6809;SDS011;3443;48.812;9.112;2022-07-06T00:33:38;1.10;;;1.02;;
6809;SDS011;3443;48.812;9.112;2022-07-06T00:36:04;1.00;;;0.90;;
6809;SDS011;3443;48.812;9.112;2022-07-06T00:38:33;1.45;;;1.00;;
6809;SDS011;3443;48.812;9.112;2022-07-06T00:40:59;0.80;;;0.80;;
6809;SDS011;3443;48.812;9.112;2022-07-06T00:43:25;3.83;;;1.23;;
6809;SDS011;3443;48.812;9.112;2022-07-06T00:45:51;1.02;;;0.88;;
6809;SDS011;3443;48.812;9.112;2022-07-06T00:48:17;1.70;;;1.00;;
6809;SDS011;3443;48.812;9.112;2022-07-06T00:50:45;1.15;;;1.10;;
6809;SDS011;3443;48.812;9.112;2022-07-06T00:53:11;0.80;;;0.80;;
6809;SDS011;3443;48.812;9.112;2022-07-06T00:55:38;1.45;;;1.35;;
6809;SDS011;3443;48.812;9.112;2022-07-06T00:58:05;3.55;;;1.10;;
6809;SDS011;3443;48.812;9.112;2022-07-06T01:00:32;2.63;;;0.98;;
6809;SDS011;3443;48.812;9.112;2022-07-06T01:02:58;0.98;;;0.98;;
6809;SDS011;3443;48.812;9.112;2022-07-06T01:05:24;2.40;;;1.10;;
6809;SDS011;3443;48.812;9.112;2022-07-06T01:07:51;0.90;;;0.90;;
6809;SDS011;3443;48.812;9.112;2022-07-06T01:10:19;1.23;;;1.08;;
6809;SDS011;3443;48.812;9.112;2022-07-06T01:12:45;3.05;;;1.10;;
6809;SDS011;3443;48.812;9.112;2022-07-06T01:15:16;2.55;;;1.20;;
6809;SDS011;3443;48.812;9.112;2022-07-06T01:17:42;1.73;;;1.13;;
6809;SDS011;3443;48.812;9.112;2022-07-06T01:22:35;1.10;;;1.10;;
6809;SDS011;3443;48.812;9.112;2022-07-06T01:25:01;1.75;;;1.15;;
6809;SDS011;3443;48.812;9.112;2022-07-06T01:27:27;1.20;;;1.20;;
6809;SDS011;3443;48.812;9.112;2022-07-06T01:29:55;1.00;;;1.00;;
6809;SDS011;3443;48.812;9.112;2022-07-06T01:32:21;1.33;;;1.00;;
6809;SDS011;3443;48.812;9.112;2022-07-06T01:34:47;1.10;;;1.10;;
6809;SDS011;3443;48.812;9.112;2022-07-06T01:37:13;0.93;;;0.93;;
6809;SDS011;3443;48.812;9.112;2022-07-06T01:39:39;1.05;;;1.05;;
6809;SDS011;3443;48.812;9.112;2022-07-06T01:42:05;1.63;;;0.95;;
6809;SDS011;3443;48.812;9.112;2022-07-06T01:44:31;0.93;;;0.93;;
6809;SDS011;3443;48.812;9.112;2022-07-06T01:46:57;1.80;;;0.70;;
6809;SDS011;3443;48.812;9.112;2022-07-06T01:49:24;1.15;;;1.10;;
6809;SDS011;3443;48.812;9.112;2022-07-06T01:51:50;1.20;;;1.00;;
6809;SDS011;3443;48.812;9.112;2022-07-06T01:54:16;1.00;;;0.88;;
6809;SDS011;3443;48.812;9.112;2022-07-06T01:56:42;1.48;;;0.90;;
6809;SDS011;3443;48.812;9.112;2022-07-06T01:59:08;2.72;;;0.90;;
6809;SDS011;3443;48.812;9.112;2022-07-06T02:01:34;1.20;;;1.20;;
6809;SDS011;3443;48.812;9.112;2022-07-06T02:04:00;0.77;;;0.77;;
6809;SDS011;3443;48.812;9.112;2022-07-06T02:06:27;1.08;;;0.93;;
6809;SDS011;3443;48.812;9.112;2022-07-06T02:08:53;0.88;;;0.70;;
6809;SDS011;3443;48.812;9.112;2022-07-06T02:11:19;2.05;;;0.90;;
6809;SDS011;3443;48.812;9.112;2022-07-06T02:13:45;2.17;;;1.05;;
6809;SDS011;3443;48.812;9.112;2022-07-06T02:16:11;1.38;;;1.00;;
6809;SDS011;3443;48.812;9.112;2022-07-06T02:18:39;2.53;;;1.23;;
6809;SDS011;3443;48.812;9.112;2022-07-06T02:21:05;1.35;;;1.00;;
6809;SDS011;3443;48.812;9.112;2022-07-06T02:23:31;1.00;;;1.00;;
6809;SDS011;3443;48.812;9.112;2022-07-06T02:25:57;1.08;;;1.08;;
6809;SDS011;3443;48.812;9.112;2022-07-06T02:28:23;1.40;;;1.10;;
6809;SDS011;3443;48.812;9.112;2022-07-06T02:30:49;0.77;;;0.77;;
6809;SDS011;3443;48.812;9.112;2022-07-06T02:33:15;2.97;;;0.85;;
6809;SDS011;3443;48.812;9.112;2022-07-06T02:35:41;2.55;;;0.90;;
6809;SDS011;3443;48.812;9.112;2022-07-06T02:38:10;1.60;;;1.10;;
6809;SDS011;3443;48.812;9.112;2022-07-06T02:40:37;1.63;;;1.00;;
6809;SDS011;3443;48.812;9.112;2022-07-06T02:43:03;1.60;;;1.35;;
6809;SDS011;3443;48.812;9.112;2022-07-06T02:45:29;1.63;;;1.10;;
6809;SDS011;3443;48.812;9.112;2022-07-06T02:47:55;1.08;;;0.90;;
6809;SDS011;3443;48.812;9.112;2022-07-06T02:50:22;1.52;;;1.08;;
6809;SDS011;3443;48.812;9.112;2022-07-06T02:52:48;1.48;;;0.90;;
6809;SDS011;3443;48.812;9.112;2022-07-06T02:55:15;1.02;;;0.80;;
6809;SDS011;3443;48.812;9.112;2022-07-06T02:57:41;2.05;;;1.10;;
6809;SDS011;3443;48.812;9.112;2022-07-06T03:00:08;1.08;;;1.08;;
6809;SDS011;3443;48.812;9.112;2022-07-06T03:02:35;2.85;;;1.27;;
6809;SDS011;3443;48.812;9.112;2022-07-06T03:05:01;4.20;;;1.10;;
6809;SDS011;3443;48.812;9.112;2022-07-06T03:07:28;2.35;;;1.33;;
6809;SDS011;3443;48.812;9.112;2022-07-06T03:09:54;1.65;;;1.33;;
6809;SDS011;3443;48.812;9.112;2022-07-06T03:12:20;1.85;;;1.20;;
6809;SDS011;3443;48.812;9.112;2022-07-06T03:14:46;2.17;;;1.63;;
6809;SDS011;3443;48.812;9.112;2022-07-06T03:17:14;1.42;;;1.33;;
6809;SDS011;3443;48.812;9.112;2022-07-06T03:19:40;1.15;;;1.10;;
6809;SDS011;3443;48.812;9.112;2022-07-06T03:22:06;1.90;;;1.40;;
6809;SDS011;3443;48.812;9.112;2022-07-06T03:24:32;2.80;;;1.23;;
6809;SDS011;3443;48.812;9.112;2022-07-06T03:26:58;1.58;;;1.27;;
6809;SDS011;3443;48.812;9.112;2022-07-06T03:29:24;1.75;;;1.27;;
6809;SDS011;3443;48.812;9.112;2022-07-06T03:31:50;3.40;;;1.52;;
6809;SDS011;3443;48.812;9.112;2022-07-06T03:34:17;2.97;;;1.67;;
6809;SDS011;3443;48.812;9.112;2022-07-06T03:36:43;1.95;;;1.55;;
6809;SDS011;3443;48.812;9.112;2022-07-06T03:39:09;1.67;;;1.58;;
6809;SDS011;3443;48.812;9.112;2022-07-06T03:41:35;1.70;;;1.60;;
6809;SDS011;3443;48.812;9.112;2022-07-06T03:44:02;1.73;;;1.63;;
6809;SDS011;3443;48.812;9.112;2022-07-06T03:46:28;1.90;;;1.80;;
6809;SDS011;3443;48.812;9.112;2022-07-06T03:48:54;1.58;;;1.48;;
6809;SDS011;3443;48.812;9.112;2022-07-06T03:51:21;1.70;;;1.60;;
6809;SDS011;3443;48.812;9.112;2022-07-06T03:53:47;1.88;;;1.52;;
6809;SDS011;3443;48.812;9.112;2022-07-06T03:56:13;2.28;;;1.30;;
6809;SDS011;3443;48.812;9.112;2022-07-06T03:58:58;1.85;;;1.67;;
6809;SDS011;3443;48.812;9.112;2022-07-06T04:01:24;1.40;;;1.30;;
6809;SDS011;3443;48.812;9.112;2022-07-06T04:03:50;2.65;;;1.50;;
6809;SDS011;3443;48.812;9.112;2022-07-06T04:06:16;1.88;;;1.77;;
6809;SDS011;3443;48.812;9.112;2022-07-06T04:08:42;1.70;;;1.60;;
6809;SDS011;3443;48.812;9.112;2022-07-06T04:11:08;1.83;;;1.75;;
6809;SDS011;3443;48.812;9.112;2022-07-06T04:13:35;2.88;;;1.83;;
6809;SDS011;3443;48.812;9.112;2022-07-06T04:16:04;1.83;;;1.60;;
6809;SDS011;3443;48.812;9.112;2022-07-06T04:18:30;2.45;;;1.65;;
6809;SDS011;3443;48.812;9.112;2022-07-06T04:20:56;2.25;;;2.13;;
6809;SDS011;3443;48.812;9.112;2022-07-06T04:23:23;2.55;;;1.30;;
6809;SDS011;3443;48.812;9.112;2022-07-06T04:25:49;1.40;;;1.40;;
6809;SDS011;3443;48.812;9.112;2022-07-06T04:28:15;2.72;;;1.98;;
6809;SDS011;3443;48.812;9.112;2022-07-06T04:30:41;2.28;;;2.15;;
6809;SDS011;3443;48.812;9.112;2022-07-06T04:33:07;1.90;;;1.80;;
6809;SDS011;3443;48.812;9.112;2022-07-06T04:35:33;1.67;;;1.58;;
6809;SDS011;3443;48.812;9.112;2022-07-06T04:37:59;2.30;;;2.10;;
6809;SDS011;3443;48.812;9.112;2022-07-06T04:40:25;5.55;;;1.83;;
6809;SDS011;3443;48.812;9.112;2022-07-06T04:42:52;4.28;;;1.88;;
6809;SDS011;3443;48.812;9.112;2022-07-06T04:45:18;1.90;;;1.77;;
6809;SDS011;3443;48.812;9.112;2022-07-06T04:47:44;2.25;;;2.05;;
6809;SDS011;3443;48.812;9.112;2022-07-06T04:50:10;1.92;;;1.90;;
6809;SDS011;3443;48.812;9.112;2022-07-06T04:52:37;3.50;;;1.90;;
6809;SDS011;3443;48.812;9.112;2022-07-06T04:55:03;1.83;;;1.73;;
6809;SDS011;3443;48.812;9.112;2022-07-06T04:57:31;2.45;;;2.20;;
6809;SDS011;3443;48.812;9.112;2022-07-06T04:59:57;2.25;;;1.95;;
6809;SDS011;3443;48.812;9.112;2022-07-06T05:02:23;2.38;;;2.15;;
6809;SDS011;3443;48.812;9.112;2022-07-06T05:04:49;1.75;;;1.65;;
6809;SDS011;3443;48.812;9.112;2022-07-06T05:07:17;2.60;;;2.10;;
6809;SDS011;3443;48.812;9.112;2022-07-06T05:09:53;1.90;;;1.80;;
6809;SDS011;3443;48.812;9.112;2022-07-06T05:12:19;2.28;;;1.95;;
6809;SDS011;3443;48.812;9.112;2022-07-06T05:14:45;3.50;;;1.70;;
6809;SDS011;3443;48.812;9.112;2022-07-06T05:17:11;2.55;;;1.95;;
6809;SDS011;3443;48.812;9.112;2022-07-06T05:19:39;2.25;;;2.05;;
6809;SDS011;3443;48.812;9.112;2022-07-06T05:22:05;2.15;;;1.58;;
6809;SDS011;3443;48.812;9.112;2022-07-06T05:24:31;1.67;;;1.60;;
6809;SDS011;3443;48.812;9.112;2022-07-06T05:26:57;2.10;;;1.52;;
6809;SDS011;3443;48.812;9.112;2022-07-06T05:29:23;2.20;;;2.00;;
6809;SDS011;3443;48.812;9.112;2022-07-06T05:31:51;2.65;;;1.80;;
6809;SDS011;3443;48.812;9.112;2022-07-06T05:34:20;1.70;;;1.60;;
6809;SDS011;3443;48.812;9.112;2022-07-06T05:36:46;1.90;;;1.80;;
6809;SDS011;3443;48.812;9.112;2022-07-06T05:39:12;3.65;;;1.95;;
6809;SDS011;3443;48.812;9.112;2022-07-06T05:41:38;2.33;;;1.60;;
6809;SDS011;3443;48.812;9.112;2022-07-06T05:44:04;1.88;;;1.70;;
6809;SDS011;3443;48.812;9.112;2022-07-06T05:46:30;3.17;;;1.73;;
6809;SDS011;3443;48.812;9.112;2022-07-06T05:48:56;2.15;;;1.88;;
6809;SDS011;3443;48.812;9.112;2022-07-06T05:51:41;6.05;;;1.65;;
6809;SDS011;3443;48.812;9.112;2022-07-06T05:54:07;2.47;;;1.50;;
6809;SDS011;3443;48.812;9.112;2022-07-06T05:56:33;1.63;;;1.52;;
6809;SDS011;3443;48.812;9.112;2022-07-06T05:58:59;1.77;;;1.63;;
6809;SDS011;3443;48.812;9.112;2022-07-06T06:01:25;1.70;;;1.55;;
6809;SDS011;3443;48.812;9.112;2022-07-06T06:03:51;4.32;;;1.90;;
6809;SDS011;3443;48.812;9.112;2022-07-06T06:06:18;2.67;;;1.67;;
6809;SDS011;3443;48.812;9.112;2022-07-06T06:08:44;3.58;;;1.88;;
6809;SDS011;3443;48.812;9.112;2022-07-06T06:11:10;1.50;;;1.38;;
6809;SDS011;3443;48.812;9.112;2022-07-06T06:13:36;3.28;;;1.80;;
6809;SDS011;3443;48.812;9.112;2022-07-06T06:16:02;1.77;;;1.67;;
6809;SDS011;3443;48.812;9.112;2022-07-06T06:18:28;3.92;;;1.88;;
6809;SDS011;3443;48.812;9.112;2022-07-06T06:20:54;2.17;;;1.48;;
6809;SDS011;3443;48.812;9.112;2022-07-06T06:23:20;1.95;;;1.50;;
6809;SDS011;3443;48.812;9.112;2022-07-06T06:25:46;2.65;;;1.30;;
6809;SDS011;3443;48.812;9.112;2022-07-06T06:28:12;2.53;;;1.70;;
6809;SDS011;3443;48.812;9.112;2022-07-06T06:30:39;1.40;;;1.30;;
6809;SDS011;3443;48.812;9.112;2022-07-06T06:35:34;2.22;;;1.70;;
6809;SDS011;3443;48.812;9.112;2022-07-06T06:38:00;2.15;;;1.40;;
6809;SDS011;3443;48.812;9.112;2022-07-06T06:40:26;2.00;;;1.52;;
6809;SDS011;3443;48.812;9.112;2022-07-06T06:42:52;2.05;;;1.52;;
6809;SDS011;3443;48.812;9.112;2022-07-06T06:45:18;1.75;;;1.33;;
6809;SDS011;3443;48.812;9.112;2022-07-06T06:47:45;4.10;;;1.73;;
6809;SDS011;3443;48.812;9.112;2022-07-06T06:50:11;1.88;;;1.60;;
6809;SDS011;3443;48.812;9.112;2022-07-06T06:52:37;2.08;;;1.58;;
6809;SDS011;3443;48.812;9.112;2022-07-06T06:55:03;1.67;;;1.52;;
6809;SDS011;3443;48.812;9.112;2022-07-06T06:57:30;2.15;;;1.60;;
6809;SDS011;3443;48.812;9.112;2022-07-06T06:59:56;3.13;;;1.55;;
6809;SDS011;3443;48.812;9.112;2022-07-06T07:02:22;2.78;;;1.40;;
6809;SDS011;3443;48.812;9.112;2022-07-06T07:04:49;1.77;;;1.67;;
6809;SDS011;3443;48.812;9.112;2022-07-06T07:07:15;2.75;;;1.63;;
6809;SDS011;3443;48.812;9.112;2022-07-06T07:09:41;1.17;;;1.13;;
6809;SDS011;3443;48.812;9.112;2022-07-06T07:12:07;1.30;;;1.20;;
6809;SDS011;3443;48.812;9.112;2022-07-06T07:14:35;1.95;;;1.70;;
6809;SDS011;3443;48.812;9.112;2022-07-06T07:17:01;1.98;;;1.60;;
6809;SDS011;3443;48.812;9.112;2022-07-06T07:19:27;2.88;;;1.63;;
6809;SDS011;3443;48.812;9.112;2022-07-06T07:21:53;1.33;;;1.20;;
6809;SDS011;3443;48.812;9.112;2022-07-06T07:24:20;1.70;;;1.60;;
6809;SDS011;3443;48.812;9.112;2022-07-06T07:26:46;1.90;;;1.80;;
6809;SDS011;3443;48.812;9.112;2022-07-06T07:29:12;2.10;;;1.60;;
6809;SDS011;3443;48.812;9.112;2022-07-06T07:31:38;3.38;;;1.65;;
6809;SDS011;3443;48.812;9.112;2022-07-06T07:34:04;1.60;;;1.50;;
6809;SDS011;3443;48.812;9.112;2022-07-06T07:36:30;2.25;;;1.70;;
6809;SDS011;3443;48.812;9.112;2022-07-06T07:38:56;4.85;;;1.80;;
6809;SDS011;3443;48.812;9.112;2022-07-06T07:41:22;2.05;;;1.63;;
6809;SDS011;3443;48.812;9.112;2022-07-06T07:43:48;2.20;;;2.00;;
6809;SDS011;3443;48.812;9.112;2022-07-06T07:46:14;2.88;;;2.40;;
6809;SDS011;3443;48.812;9.112;2022-07-06T07:48:41;2.92;;;1.70;;
6809;SDS011;3443;48.812;9.112;2022-07-06T07:51:07;2.30;;;1.52;;
6809;SDS011;3443;48.812;9.112;2022-07-06T07:53:33;2.67;;;1.70;;
6809;SDS011;3443;48.812;9.112;2022-07-06T07:55:59;1.40;;;1.40;;
6809;SDS011;3443;48.812;9.112;2022-07-06T07:58:26;2.95;;;1.92;;
6809;SDS011;3443;48.812;9.112;2022-07-06T08:00:52;2.13;;;1.67;;
6809;SDS011;3443;48.812;9.112;2022-07-06T08:03:18;2.92;;;1.83;;
6809;SDS011;3443;48.812;9.112;2022-07-06T08:05:44;2.15;;;1.95;;
6809;SDS011;3443;48.812;9.112;2022-07-06T08:08:13;1.63;;;1.45;;
6809;SDS011;3443;48.812;9.112;2022-07-06T08:10:39;1.63;;;1.23;;
6809;SDS011;3443;48.812;9.112;2022-07-06T08:13:05;2.10;;;1.90;;
6809;SDS011;3443;48.812;9.112;2022-07-06T08:15:33;2.53;;;1.60;;
6809;SDS011;3443;48.812;9.112;2022-07-06T08:18:00;1.65;;;1.55;;
6809;SDS011;3443;48.812;9.112;2022-07-06T08:20:26;1.73;;;1.50;;
6809;SDS011;3443;48.812;9.112;2022-07-06T08:22:52;2.83;;;1.60;;
6809;SDS011;3443;48.812;9.112;2022-07-06T08:25:18;2.80;;;1.73;;
6809;SDS011;3443;48.812;9.112;2022-07-06T08:27:44;2.45;;;1.42;;
6809;SDS011;3443;48.812;9.112;2022-07-06T08:30:11;3.80;;;1.30;;
6809;SDS011;3443;48.812;9.112;2022-07-06T08:32:38;2.42;;;1.52;;
6809;SDS011;3443;48.812;9.112;2022-07-06T08:35:04;4.00;;;1.40;;
6809;SDS011;3443;48.812;9.112;2022-07-06T08:37:30;5.97;;;1.55;;
6809;SDS011;3443;48.812;9.112;2022-07-06T08:39:56;4.03;;;1.75;;
6809;SDS011;3443;48.812;9.112;2022-07-06T08:42:23;3.50;;;1.50;;
6809;SDS011;3443;48.812;9.112;2022-07-06T08:44:51;1.40;;;1.30;;
6809;SDS011;3443;48.812;9.112;2022-07-06T08:47:19;1.55;;;1.38;;
6809;SDS011;3443;48.812;9.112;2022-07-06T08:49:45;2.50;;;2.10;;
6809;SDS011;3443;48.812;9.112;2022-07-06T08:52:12;2.03;;;1.83;;
6809;SDS011;3443;48.812;9.112;2022-07-06T08:54:38;1.23;;;1.00;;
6809;SDS011;3443;48.812;9.112;2022-07-06T08:57:05;2.67;;;1.98;;
6809;SDS011;3443;48.812;9.112;2022-07-06T08:59:33;3.60;;;1.60;;
6809;SDS011;3443;48.812;9.112;2022-07-06T09:01:59;2.45;;;1.27;;
6809;SDS011;3443;48.812;9.112;2022-07-06T09:04:26;1.35;;;1.25;;
6809;SDS011;3443;48.812;9.112;2022-07-06T09:06:52;2.50;;;1.50;;
6809;SDS011;3443;48.812;9.112;2022-07-06T09:09:20;1.83;;;1.58;;
6809;SDS011;3443;48.812;9.112;2022-07-06T09:11:47;2.28;;;1.83;;
6809;SDS011;3443;48.812;9.112;2022-07-06T09:14:13;2.25;;;1.73;;
6809;SDS011;3443;48.812;9.112;2022-07-06T09:16:39;1.52;;;1.42;;
6809;SDS011;3443;48.812;9.112;2022-07-06T09:19:06;3.17;;;1.58;;
6809;SDS011;3443;48.812;9.112;2022-07-06T09:21:32;2.03;;;1.65;;
6809;SDS011;3443;48.812;9.112;2022-07-06T09:24:01;2.33;;;1.23;;
6809;SDS011;3443;48.812;9.112;2022-07-06T09:26:27;2.28;;;1.70;;
6809;SDS011;3443;48.812;9.112;2022-07-06T09:28:54;3.00;;;1.80;;
6809;SDS011;3443;48.812;9.112;2022-07-06T09:31:21;2.13;;;2.03;;
6809;SDS011;3443;48.812;9.112;2022-07-06T09:34:00;1.70;;;1.60;;
6809;SDS011;3443;48.812;9.112;2022-07-06T09:36:46;1.77;;;1.40;;
6809;SDS011;3443;48.812;9.112;2022-07-06T09:39:16;3.25;;;1.55;;
6809;SDS011;3443;48.812;9.112;2022-07-06T09:41:43;1.73;;;1.63;;
6809;SDS011;3443;48.812;9.112;2022-07-06T09:44:09;3.30;;;1.50;;
6809;SDS011;3443;48.812;9.112;2022-07-06T09:46:40;4.35;;;1.45;;
6809;SDS011;3443;48.812;9.112;2022-07-06T09:49:06;3.55;;;1.73;;
6809;SDS011;3443;48.812;9.112;2022-07-06T09:51:35;1.50;;;1.40;;
6809;SDS011;3443;48.812;9.112;2022-07-06T09:54:03;1.65;;;1.55;;
6809;SDS011;3443;48.812;9.112;2022-07-06T09:56:39;3.00;;;1.70;;
6809;SDS011;3443;48.812;9.112;2022-07-06T09:59:07;2.17;;;1.40;;
6809;SDS011;3443;48.812;9.112;2022-07-06T10:01:34;3.55;;;1.67;;
6809;SDS011;3443;48.812;9.112;2022-07-06T10:04:00;2.35;;;1.30;;
6809;SDS011;3443;48.812;9.112;2022-07-06T10:06:27;1.65;;;1.55;;
6809;SDS011;3443;48.812;9.112;2022-07-06T10:08:57;3.72;;;1.38;;
6809;SDS011;3443;48.812;9.112;2022-07-06T10:11:24;2.63;;;2.42;;
6809;SDS011;3443;48.812;9.112;2022-07-06T10:13:52;2.10;;;2.00;;
6809;SDS011;3443;48.812;9.112;2022-07-06T10:16:19;3.92;;;1.33;;
6809;SDS011;3443;48.812;9.112;2022-07-06T10:18:45;2.10;;;2.00;;
6809;SDS011;3443;48.812;9.112;2022-07-06T10:21:11;2.03;;;1.77;;
6809;SDS011;3443;48.812;9.112;2022-07-06T10:23:37;1.60;;;1.50;;
6809;SDS011;3443;48.812;9.112;2022-07-06T10:26:04;2.85;;;1.77;;
6809;SDS011;3443;48.812;9.112;2022-07-06T10:28:32;2.58;;;1.50;;
6809;SDS011;3443;48.812;9.112;2022-07-06T10:30:58;1.95;;;1.70;;
6809;SDS011;3443;48.812;9.112;2022-07-06T10:33:24;2.53;;;1.88;;
6809;SDS011;3443;48.812;9.112;2022-07-06T10:35:51;2.85;;;1.90;;
6809;SDS011;3443;48.812;9.112;2022-07-06T10:38:17;2.72;;;1.80;;
6809;SDS011;3443;48.812;9.112;2022-07-06T10:40:44;1.92;;;1.83;;
6809;SDS011;3443;48.812;9.112;2022-07-06T10:43:34;2.10;;;1.90;;
6809;SDS011;3443;48.812;9.112;2022-07-06T10:46:21;2.38;;;1.80;;
6809;SDS011;3443;48.812;9.112;2022-07-06T10:48:47;4.63;;;1.90;;
6809;SDS011;3443;48.812;9.112;2022-07-06T10:51:23;3.60;;;1.73;;
6809;SDS011;3443;48.812;9.112;2022-07-06T10:53:56;3.15;;;1.60;;
6809;SDS011;3443;48.812;9.112;2022-07-06T10:56:32;4.15;;;2.03;;
6809;SDS011;3443;48.812;9.112;2022-07-06T10:59:01;4.88;;;1.92;;
6809;SDS011;3443;48.812;9.112;2022-07-06T11:01:28;2.65;;;1.50;;
6809;SDS011;3443;48.812;9.112;2022-07-06T11:06:24;2.47;;;1.92;;
6809;SDS011;3443;48.812;9.112;2022-07-06T11:14:28;1.70;;;1.13;;
6809;SDS011;3443;48.812;9.112;2022-07-06T11:16:29;4.75;;;1.80;;
6809;SDS011;3443;48.812;9.112;2022-07-06T11:21:38;2.55;;;1.60;;
6809;SDS011;3443;48.812;9.112;2022-07-06T11:24:08;2.03;;;1.65;;
6809;SDS011;3443;48.812;9.112;2022-07-06T11:26:35;2.55;;;1.80;;
6809;SDS011;3443;48.812;9.112;2022-07-06T11:29:05;1.35;;;1.33;;
6809;SDS011;3443;48.812;9.112;2022-07-06T11:31:34;2.67;;;1.98;;
6809;SDS011;3443;48.812;9.112;2022-07-06T11:34:02;3.33;;;1.77;;
6809;SDS011;3443;48.812;9.112;2022-07-06T11:36:28;1.75;;;1.65;;
6809;SDS011;3443;48.812;9.112;2022-07-06T11:38:54;1.70;;;1.60;;
6809;SDS011;3443;48.812;9.112;2022-07-06T11:41:20;1.85;;;1.75;;
6809;SDS011;3443;48.812;9.112;2022-07-06T11:43:47;3.75;;;1.92;;
6809;SDS011;3443;48.812;9.112;2022-07-06T11:48:59;3.45;;;1.70;;
6809;SDS011;3443;48.812;9.112;2022-07-06T11:51:25;6.72;;;1.83;;
6809;SDS011;3443;48.812;9.112;2022-07-06T11:53:53;4.13;;;2.10;;
6809;SDS011;3443;48.812;9.112;2022-07-06T11:56:19;5.95;;;1.80;;
6809;SDS011;3443;48.812;9.112;2022-07-06T11:58:49;2.60;;;2.10;;
6809;SDS011;3443;48.812;9.112;2022-07-06T12:01:16;2.20;;;1.98;;
6809;SDS011;3443;48.812;9.112;2022-07-06T12:03:42;4.57;;;2.03;;
6809;SDS011;3443;48.812;9.112;2022-07-06T12:06:18;3.58;;;1.98;;
6809;SDS011;3443;48.812;9.112;2022-07-06T12:08:46;2.28;;;2.08;;
6809;SDS011;3443;48.812;9.112;2022-07-06T12:14:13;1.95;;;1.40;;
6809;SDS011;3443;48.812;9.112;2022-07-06T12:16:40;3.28;;;1.80;;
6809;SDS011;3443;48.812;9.112;2022-07-06T12:19:06;1.70;;;1.60;;
6809;SDS011;3443;48.812;9.112;2022-07-06T12:21:33;3.33;;;1.92;;
6809;SDS011;3443;48.812;9.112;2022-07-06T12:24:00;3.65;;;1.88;;
6809;SDS011;3443;48.812;9.112;2022-07-06T12:26:27;2.92;;;2.05;;
6809;SDS011;3443;48.812;9.112;2022-07-06T12:33:59;1.77;;;1.67;;
6809;SDS011;3443;48.812;9.112;2022-07-06T12:36:25;4.13;;;1.67;;
6809;SDS011;3443;48.812;9.112;2022-07-06T12:38:51;1.38;;;1.23;;
6809;SDS011;3443;48.812;9.112;2022-07-06T12:41:51;5.05;;;1.40;;
6809;SDS011;3443;48.812;9.112;2022-07-06T12:44:10;1.48;;;1.40;;
6809;SDS011;3443;48.812;9.112;2022-07-06T12:46:37;2.85;;;1.50;;
6809;SDS011;3443;48.812;9.112;2022-07-06T12:49:25;2.15;;;1.50;;
6809;SDS011;3443;48.812;9.112;2022-07-06T12:51:52;2.15;;;1.38;;
6809;SDS011;3443;48.812;9.112;2022-07-06T12:54:18;2.60;;;1.55;;
6809;SDS011;3443;48.812;9.112;2022-07-06T12:59:26;1.40;;;1.30;;
6809;SDS011;3443;48.812;9.112;2022-07-06T13:01:53;3.13;;;1.33;;
6809;SDS011;3443;48.812;9.112;2022-07-06T13:04:29;3.08;;;1.38;;
6809;SDS011;3443;48.812;9.112;2022-07-06T13:06:56;2.45;;;1.10;;
6809;SDS011;3443;48.812;9.112;2022-07-06T13:09:22;3.45;;;1.48;;
6809;SDS011;3443;48.812;9.112;2022-07-06T13:11:49;2.58;;;1.13;;
6809;SDS011;3443;48.812;9.112;2022-07-06T13:14:15;1.80;;;1.20;;
6809;SDS011;3443;48.812;9.112;2022-07-06T13:16:42;3.05;;;1.35;;
6809;SDS011;3443;48.812;9.112;2022-07-06T13:19:08;2.05;;;1.10;;
6809;SDS011;3443;48.812;9.112;2022-07-06T13:21:34;2.33;;;1.20;;
6809;SDS011;3443;48.812;9.112;2022-07-06T13:24:01;1.10;;;1.10;;
6809;SDS011;3443;48.812;9.112;2022-07-06T13:26:28;2.10;;;1.40;;
6809;SDS011;3443;48.812;9.112;2022-07-06T13:28:54;1.95;;;1.38;;
6809;SDS011;3443;48.812;9.112;2022-07-06T13:31:20;3.05;;;1.38;;
6809;SDS011;3443;48.812;9.112;2022-07-06T13:33:46;2.45;;;1.02;;
6809;SDS011;3443;48.812;9.112;2022-07-06T13:36:12;3.53;;;1.35;;
6809;SDS011;3443;48.812;9.112;2022-07-06T13:38:39;1.45;;;0.90;;
6809;SDS011;3443;48.812;9.112;2022-07-06T13:41:05;2.10;;;1.17;;
6809;SDS011;3443;48.812;9.112;2022-07-06T13:43:31;1.00;;;1.00;;
6809;SDS011;3443;48.812;9.112;2022-07-06T13:46:02;1.48;;;1.08;;
6809;SDS011;3443;48.812;9.112;2022-07-06T13:48:28;1.42;;;1.10;;
6809;SDS011;3443;48.812;9.112;2022-07-06T13:50:54;1.40;;;0.90;;
6809;SDS011;3443;48.812;9.112;2022-07-06T13:53:20;1.20;;;1.10;;
6809;SDS011;3443;48.812;9.112;2022-07-06T13:55:46;2.47;;;1.45;;
6809;SDS011;3443;48.812;9.112;2022-07-06T13:58:13;3.15;;;1.05;;
6809;SDS011;3443;48.812;9.112;2022-07-06T14:00:39;0.82;;;0.82;;
6809;SDS011;3443;48.812;9.112;2022-07-06T14:03:05;2.75;;;1.00;;
6809;SDS011;3443;48.812;9.112;2022-07-06T14:05:31;1.45;;;0.60;;
6809;SDS011;3443;48.812;9.112;2022-07-06T14:07:57;3.58;;;0.90;;
6809;SDS011;3443;48.812;9.112;2022-07-06T14:10:23;3.42;;;1.10;;
6809;SDS011;3443;48.812;9.112;2022-07-06T14:12:49;2.50;;;1.00;;
6809;SDS011;3443;48.812;9.112;2022-07-06T14:15:16;2.15;;;0.93;;
6809;SDS011;3443;48.812;9.112;2022-07-06T14:17:42;1.00;;;1.00;;
6809;SDS011;3443;48.812;9.112;2022-07-06T14:20:08;1.02;;;0.70;;
6809;SDS011;3443;48.812;9.112;2022-07-06T14:22:34;1.55;;;1.20;;
6809;SDS011;3443;48.812;9.112;2022-07-06T14:25:01;2.13;;;1.17;;
6809;SDS011;3443;48.812;9.112;2022-07-06T14:27:27;0.80;;;0.80;;
6809;SDS011;3443;48.812;9.112;2022-07-06T14:29:53;1.20;;;0.90;;
6809;SDS011;3443;48.812;9.112;2022-07-06T14:32:19;2.38;;;1.10;;
6809;SDS011;3443;48.812;9.112;2022-07-06T14:34:45;0.85;;;0.85;;
6809;SDS011;3443;48.812;9.112;2022-07-06T14:37:11;0.98;;;0.98;;
6809;SDS011;3443;48.812;9.112;2022-07-06T14:39:37;1.13;;;0.88;;
6809;SDS011;3443;48.812;9.112;2022-07-06T14:42:04;0.80;;;0.80;;
6809;SDS011;3443;48.812;9.112;2022-07-06T14:44:30;2.60;;;0.93;;
6809;SDS011;3443;48.812;9.112;2022-07-06T14:46:56;1.52;;;0.85;;
6809;SDS011;3443;48.812;9.112;2022-07-06T14:49:22;0.95;;;0.95;;
6809;SDS011;3443;48.812;9.112;2022-07-06T14:51:48;1.35;;;0.90;;
6809;SDS011;3443;48.812;9.112;2022-07-06T14:54:14;1.30;;;0.90;;
6809;SDS011;3443;48.812;9.112;2022-07-06T14:56:41;2.92;;;0.80;;
6809;SDS011;3443;48.812;9.112;2022-07-06T14:59:07;1.80;;;0.80;;
6809;SDS011;3443;48.812;9.112;2022-07-06T15:01:34;1.40;;;0.90;;
6809;SDS011;3443;48.812;9.112;2022-07-06T15:04:00;1.02;;;1.02;;
6809;SDS011;3443;48.812;9.112;2022-07-06T15:06:26;2.03;;;0.90;;
6809;SDS011;3443;48.812;9.112;2022-07-06T15:08:52;1.70;;;0.60;;
6809;SDS011;3443;48.812;9.112;2022-07-06T15:11:18;2.58;;;0.80;;
6809;SDS011;3443;48.812;9.112;2022-07-06T15:13:44;3.13;;;0.95;;
6809;SDS011;3443;48.812;9.112;2022-07-06T15:16:10;0.93;;;0.85;;
6809;SDS011;3443;48.812;9.112;2022-07-06T15:18:37;2.40;;;1.00;;
6809;SDS011;3443;48.812;9.112;2022-07-06T15:21:03;1.17;;;0.80;;
6809;SDS011;3443;48.812;9.112;2022-07-06T15:23:30;0.80;;;0.80;;
6809;SDS011;3443;48.812;9.112;2022-07-06T15:25:56;0.77;;;0.77;;
6809;SDS011;3443;48.812;9.112;2022-07-06T15:28:22;0.70;;;0.70;;
6809;SDS011;3443;48.812;9.112;2022-07-06T15:30:52;0.70;;;0.70;;
6809;SDS011;3443;48.812;9.112;2022-07-06T15:33:18;0.95;;;0.65;;
6809;SDS011;3443;48.812;9.112;2022-07-06T15:35:45;1.98;;;0.60;;
6809;SDS011;3443;48.812;9.112;2022-07-06T15:38:12;0.90;;;0.88;;
6809;SDS011;3443;48.812;9.112;2022-07-06T15:40:38;1.00;;;0.77;;
6809;SDS011;3443;48.812;9.112;2022-07-06T15:43:15;6.40;;;0.63;;